sensor_id;sensor_type;location;lat;lon;timestamp;temperature;humidity
16517;DHT22;8371;52.272;9.746;2022-09-03T00:02:23;15.90;43.90
16517;DHT22;8371;52.272;9.746;2022-09-03T00:05:16;15.90;44.20
16517;DHT22;8371;52.272;9.746;2022-09-03T00:08:05;15.80;44.10
16517;DHT22;8371;52.272;9.746;2022-09-03T00:10:45;15.80;44.20
16517;DHT22;8371;52.272;9.746;2022-09-03T00:13:19;15.70;44.30
16517;DHT22;8371;52.272;9.746;2022-09-03T00:15:44;15.70;44.50
16517;DHT22;8371;52.272;9.746;2022-09-03T00:18:13;15.60;44.40
16517;DHT22;8371;52.272;9.746;2022-09-03T00:20:42;15.60;44.70
16517;DHT22;8371;52.272;9.746;2022-09-03T00:23:13;15.60;44.80
16517;DHT22;8371;52.272;9.746;2022-09-03T00:25:49;15.50;45.00
16517;DHT22;8371;52.272;9.746;2022-09-03T00:28:17;15.50;45.10
16517;DHT22;8371;52.272;9.746;2022-09-03T00:30:45;15.50;45.30
16517;DHT22;8371;52.272;9.746;2022-09-03T00:33:20;15.50;45.30
16517;DHT22;8371;52.272;9.746;2022-09-03T00:36:05;15.50;45.50
16517;DHT22;8371;52.272;9.746;2022-09-03T00:38:31;15.50;46.30
16517;DHT22;8371;52.272;9.746;2022-09-03T00:41:13;15.50;45.60
16517;DHT22;8371;52.272;9.746;2022-09-03T00:44:00;15.50;45.60
16517;DHT22;8371;52.272;9.746;2022-09-03T00:46:20;15.50;45.70
16517;DHT22;8371;52.272;9.746;2022-09-03T00:54:59;15.50;45.70
16517;DHT22;8371;52.272;9.746;2022-09-03T01:00:23;15.50;45.90
16517;DHT22;8371;52.272;9.746;2022-09-03T01:05:52;15.60;46.00
16517;DHT22;8371;52.272;9.746;2022-09-03T01:08:26;15.60;46.20
16517;DHT22;8371;52.272;9.746;2022-09-03T01:11:07;15.60;46.10
16517;DHT22;8371;52.272;9.746;2022-09-03T01:13:39;15.60;46.30
16517;DHT22;8371;52.272;9.746;2022-09-03T01:16:27;15.60;46.10
16517;DHT22;8371;52.272;9.746;2022-09-03T01:27:56;15.70;46.20
16517;DHT22;8371;52.272;9.746;2022-09-03T01:30:16;15.70;46.30
16517;DHT22;8371;52.272;9.746;2022-09-03T01:32:48;15.70;46.40
16517;DHT22;8371;52.272;9.746;2022-09-03T01:35:39;15.70;46.30
16517;DHT22;8371;52.272;9.746;2022-09-03T01:38:11;15.70;46.50
16517;DHT22;8371;52.272;9.746;2022-09-03T01:40:41;15.70;46.50
16517;DHT22;8371;52.272;9.746;2022-09-03T01:43:32;15.70;46.80
16517;DHT22;8371;52.272;9.746;2022-09-03T01:46:04;15.70;46.70
16517;DHT22;8371;52.272;9.746;2022-09-03T01:48:58;15.70;46.70
16517;DHT22;8371;52.272;9.746;2022-09-03T01:51:22;15.70;46.80
16517;DHT22;8371;52.272;9.746;2022-09-03T01:59:58;15.60;46.70
16517;DHT22;8371;52.272;9.746;2022-09-03T02:02:25;15.60;46.80
16517;DHT22;8371;52.272;9.746;2022-09-03T02:05:00;15.60;46.90
16517;DHT22;8371;52.272;9.746;2022-09-03T02:07:32;15.60;47.10
16517;DHT22;8371;52.272;9.746;2022-09-03T02:10:01;15.60;47.30
16517;DHT22;8371;52.272;9.746;2022-09-03T02:12:29;15.50;47.00
16517;DHT22;8371;52.272;9.746;2022-09-03T02:14:59;15.60;47.30
16517;DHT22;8371;52.272;9.746;2022-09-03T02:17:30;15.60;47.40
16517;DHT22;8371;52.272;9.746;2022-09-03T02:19:57;15.60;47.40
16517;DHT22;8371;52.272;9.746;2022-09-03T02:22:23;15.60;47.50
16517;DHT22;8371;52.272;9.746;2022-09-03T02:24:48;15.60;47.50
16517;DHT22;8371;52.272;9.746;2022-09-03T02:27:15;15.60;47.40
16517;DHT22;8371;52.272;9.746;2022-09-03T02:29:41;15.60;47.40
16517;DHT22;8371;52.272;9.746;2022-09-03T02:32:06;15.60;47.40
16517;DHT22;8371;52.272;9.746;2022-09-03T02:34:32;15.60;47.50
16517;DHT22;8371;52.272;9.746;2022-09-03T02:36:57;15.60;47.50
16517;DHT22;8371;52.272;9.746;2022-09-03T02:39:23;15.60;47.50
16517;DHT22;8371;52.272;9.746;2022-09-03T02:41:54;15.60;47.50
16517;DHT22;8371;52.272;9.746;2022-09-03T02:44:25;15.60;47.60
16517;DHT22;8371;52.272;9.746;2022-09-03T02:47:02;15.60;47.70
16517;DHT22;8371;52.272;9.746;2022-09-03T02:49:24;15.60;47.60
16517;DHT22;8371;52.272;9.746;2022-09-03T02:51:56;15.60;47.60
16517;DHT22;8371;52.272;9.746;2022-09-03T02:54:20;15.60;47.80
16517;DHT22;8371;52.272;9.746;2022-09-03T02:56:46;15.60;47.80
16517;DHT22;8371;52.272;9.746;2022-09-03T02:59:14;15.60;47.90
16517;DHT22;8371;52.272;9.746;2022-09-03T03:01:41;15.50;47.90
16517;DHT22;8371;52.272;9.746;2022-09-03T03:04:07;15.60;48.00
16517;DHT22;8371;52.272;9.746;2022-09-03T03:06:32;15.60;47.90
16517;DHT22;8371;52.272;9.746;2022-09-03T03:08:58;15.60;47.90
16517;DHT22;8371;52.272;9.746;2022-09-03T03:11:24;15.50;48.30
16517;DHT22;8371;52.272;9.746;2022-09-03T03:13:51;15.60;48.00
16517;DHT22;8371;52.272;9.746;2022-09-03T03:16:17;15.50;48.10
16517;DHT22;8371;52.272;9.746;2022-09-03T03:18:44;15.50;48.30
16517;DHT22;8371;52.272;9.746;2022-09-03T03:21:15;15.50;48.30
16517;DHT22;8371;52.272;9.746;2022-09-03T03:23:41;15.50;48.20
16517;DHT22;8371;52.272;9.746;2022-09-03T03:26:10;15.50;48.30
16517;DHT22;8371;52.272;9.746;2022-09-03T03:28:36;15.50;48.30
16517;DHT22;8371;52.272;9.746;2022-09-03T03:31:07;15.50;48.50
16517;DHT22;8371;52.272;9.746;2022-09-03T03:33:34;15.50;48.50
16517;DHT22;8371;52.272;9.746;2022-09-03T03:36:07;15.40;48.40
16517;DHT22;8371;52.272;9.746;2022-09-03T03:38:34;15.40;48.40
16517;DHT22;8371;52.272;9.746;2022-09-03T03:41:06;15.40;48.60
16517;DHT22;8371;52.272;9.746;2022-09-03T03:43:31;15.40;48.60
16517;DHT22;8371;52.272;9.746;2022-09-03T03:45:57;15.40;48.70
16517;DHT22;8371;52.272;9.746;2022-09-03T03:48:24;15.30;48.60
16517;DHT22;8371;52.272;9.746;2022-09-03T03:50:50;15.30;48.80
16517;DHT22;8371;52.272;9.746;2022-09-03T03:53:16;15.30;48.70
16517;DHT22;8371;52.272;9.746;2022-09-03T03:55:42;15.30;48.90
16517;DHT22;8371;52.272;9.746;2022-09-03T03:58:07;15.10;48.80
16517;DHT22;8371;52.272;9.746;2022-09-03T04:00:33;15.30;48.90
16517;DHT22;8371;52.272;9.746;2022-09-03T04:03:01;15.20;48.90
16517;DHT22;8371;52.272;9.746;2022-09-03T04:05:26;15.20;48.90
16517;DHT22;8371;52.272;9.746;2022-09-03T04:07:52;15.20;48.90
16517;DHT22;8371;52.272;9.746;2022-09-03T04:10:18;15.20;49.10
16517;DHT22;8371;52.272;9.746;2022-09-03T04:12:43;15.10;49.10
16517;DHT22;8371;52.272;9.746;2022-09-03T04:15:09;15.10;49.10
16517;DHT22;8371;52.272;9.746;2022-09-03T04:17:35;15.00;49.20
16517;DHT22;8371;52.272;9.746;2022-09-03T04:20:01;15.00;49.30
16517;DHT22;8371;52.272;9.746;2022-09-03T04:22:27;15.00;49.40
16517;DHT22;8371;52.272;9.746;2022-09-03T04:24:54;15.00;49.40
16517;DHT22;8371;52.272;9.746;2022-09-03T04:27:19;14.90;49.50
16517;DHT22;8371;52.272;9.746;2022-09-03T04:29:45;14.90;49.60
16517;DHT22;8371;52.272;9.746;2022-09-03T04:32:10;14.90;49.40
16517;DHT22;8371;52.272;9.746;2022-09-03T04:34:54;14.80;49.60
16517;DHT22;8371;52.272;9.746;2022-09-03T04:37:21;14.80;49.70
16517;DHT22;8371;52.272;9.746;2022-09-03T04:39:47;14.70;49.70
16517;DHT22;8371;52.272;9.746;2022-09-03T04:42:13;14.70;50.00
16517;DHT22;8371;52.272;9.746;2022-09-03T04:44:38;14.70;50.00
16517;DHT22;8371;52.272;9.746;2022-09-03T04:47:05;14.60;50.20
16517;DHT22;8371;52.272;9.746;2022-09-03T04:49:31;14.60;50.20
16517;DHT22;8371;52.272;9.746;2022-09-03T04:51:57;14.60;50.20
16517;DHT22;8371;52.272;9.746;2022-09-03T04:54:22;14.60;50.30
16517;DHT22;8371;52.272;9.746;2022-09-03T04:56:48;14.60;50.40
16517;DHT22;8371;52.272;9.746;2022-09-03T04:59:14;14.60;50.50
16517;DHT22;8371;52.272;9.746;2022-09-03T05:01:40;14.60;50.50
16517;DHT22;8371;52.272;9.746;2022-09-03T05:04:07;14.60;50.60
16517;DHT22;8371;52.272;9.746;2022-09-03T05:06:35;14.60;50.60
16517;DHT22;8371;52.272;9.746;2022-09-03T05:09:02;14.60;50.70
16517;DHT22;8371;52.272;9.746;2022-09-03T05:11:28;14.60;50.70
16517;DHT22;8371;52.272;9.746;2022-09-03T05:13:56;14.60;50.80
16517;DHT22;8371;52.272;9.746;2022-09-03T05:16:22;14.70;50.90
16517;DHT22;8371;52.272;9.746;2022-09-03T05:18:52;14.70;51.00
16517;DHT22;8371;52.272;9.746;2022-09-03T05:21:19;14.70;50.90
16517;DHT22;8371;52.272;9.746;2022-09-03T05:23:47;14.80;51.10
16517;DHT22;8371;52.272;9.746;2022-09-03T05:26:16;14.80;51.00
16517;DHT22;8371;52.272;9.746;2022-09-03T05:28:42;14.90;51.10
16517;DHT22;8371;52.272;9.746;2022-09-03T05:31:18;15.00;51.10
16517;DHT22;8371;52.272;9.746;2022-09-03T05:33:44;15.00;51.10
16517;DHT22;8371;52.272;9.746;2022-09-03T05:36:12;15.10;51.00
16517;DHT22;8371;52.272;9.746;2022-09-03T05:38:38;15.20;51.10
16517;DHT22;8371;52.272;9.746;2022-09-03T05:41:06;15.30;51.00
16517;DHT22;8371;52.272;9.746;2022-09-03T05:43:32;15.40;51.10
16517;DHT22;8371;52.272;9.746;2022-09-03T05:45:59;15.50;51.20
16517;DHT22;8371;52.272;9.746;2022-09-03T05:48:26;15.60;51.20
16517;DHT22;8371;52.272;9.746;2022-09-03T05:51:02;15.80;51.20
16517;DHT22;8371;52.272;9.746;2022-09-03T05:53:29;15.90;51.20
16517;DHT22;8371;52.272;9.746;2022-09-03T05:55:58;16.10;51.10
16517;DHT22;8371;52.272;9.746;2022-09-03T05:58:28;16.10;51.10
16517;DHT22;8371;52.272;9.746;2022-09-03T06:00:52;16.30;50.90
16517;DHT22;8371;52.272;9.746;2022-09-03T06:03:18;16.40;50.70
16517;DHT22;8371;52.272;9.746;2022-09-03T06:05:52;16.50;50.70
16517;DHT22;8371;52.272;9.746;2022-09-03T06:08:20;16.70;50.70
16517;DHT22;8371;52.272;9.746;2022-09-03T06:10:46;16.80;50.60
16517;DHT22;8371;52.272;9.746;2022-09-03T06:13:11;16.90;50.50
16517;DHT22;8371;52.272;9.746;2022-09-03T06:15:37;17.00;50.60
16517;DHT22;8371;52.272;9.746;2022-09-03T06:18:04;17.10;50.30
16517;DHT22;8371;52.272;9.746;2022-09-03T06:20:30;17.30;50.30
16517;DHT22;8371;52.272;9.746;2022-09-03T06:22:57;17.40;50.30
16517;DHT22;8371;52.272;9.746;2022-09-03T06:25:23;17.50;50.10
16517;DHT22;8371;52.272;9.746;2022-09-03T06:27:49;17.60;50.00
16517;DHT22;8371;52.272;9.746;2022-09-03T06:30:15;17.70;50.10
16517;DHT22;8371;52.272;9.746;2022-09-03T06:32:48;17.90;50.00
16517;DHT22;8371;52.272;9.746;2022-09-03T06:35:18;18.00;50.10
16517;DHT22;8371;52.272;9.746;2022-09-03T06:37:44;18.10;50.00
16517;DHT22;8371;52.272;9.746;2022-09-03T06:40:10;18.20;49.90
16517;DHT22;8371;52.272;9.746;2022-09-03T06:42:41;18.30;49.70
16517;DHT22;8371;52.272;9.746;2022-09-03T06:45:08;18.40;49.70
16517;DHT22;8371;52.272;9.746;2022-09-03T06:47:34;18.60;49.60
16517;DHT22;8371;52.272;9.746;2022-09-03T06:50:00;18.70;49.60
16517;DHT22;8371;52.272;9.746;2022-09-03T06:52:30;18.70;49.30
16517;DHT22;8371;52.272;9.746;2022-09-03T06:54:55;18.80;49.30
16517;DHT22;8371;52.272;9.746;2022-09-03T06:57:23;18.90;49.30
16517;DHT22;8371;52.272;9.746;2022-09-03T06:59:48;19.00;49.20
16517;DHT22;8371;52.272;9.746;2022-09-03T07:02:14;19.10;49.20
16517;DHT22;8371;52.272;9.746;2022-09-03T07:04:40;19.30;49.40
16517;DHT22;8371;52.272;9.746;2022-09-03T07:07:06;19.30;49.30
16517;DHT22;8371;52.272;9.746;2022-09-03T07:09:33;19.40;49.20
16517;DHT22;8371;52.272;9.746;2022-09-03T07:12:01;19.60;49.10
16517;DHT22;8371;52.272;9.746;2022-09-03T07:14:27;19.70;48.90
16517;DHT22;8371;52.272;9.746;2022-09-03T07:16:53;19.80;48.80
16517;DHT22;8371;52.272;9.746;2022-09-03T07:19:18;19.90;48.90
16517;DHT22;8371;52.272;9.746;2022-09-03T07:21:44;20.10;48.80
16517;DHT22;8371;52.272;9.746;2022-09-03T07:24:10;20.20;48.80
16517;DHT22;8371;52.272;9.746;2022-09-03T07:26:39;20.30;48.70
16517;DHT22;8371;52.272;9.746;2022-09-03T07:29:06;20.50;48.70
16517;DHT22;8371;52.272;9.746;2022-09-03T07:31:35;20.70;48.70
16517;DHT22;8371;52.272;9.746;2022-09-03T07:34:04;20.80;48.60
16517;DHT22;8371;52.272;9.746;2022-09-03T07:36:36;21.00;48.50
16517;DHT22;8371;52.272;9.746;2022-09-03T07:39:10;21.20;48.30
16517;DHT22;8371;52.272;9.746;2022-09-03T07:41:36;21.30;47.80
16517;DHT22;8371;52.272;9.746;2022-09-03T07:44:02;21.40;47.70
16517;DHT22;8371;52.272;9.746;2022-09-03T07:46:34;21.50;47.60
16517;DHT22;8371;52.272;9.746;2022-09-03T07:49:01;21.60;47.40
16517;DHT22;8371;52.272;9.746;2022-09-03T07:51:29;21.80;47.30
16517;DHT22;8371;52.272;9.746;2022-09-03T07:53:57;21.90;47.10
16517;DHT22;8371;52.272;9.746;2022-09-03T07:56:25;22.00;47.00
16517;DHT22;8371;52.272;9.746;2022-09-03T07:58:51;22.10;46.80
16517;DHT22;8371;52.272;9.746;2022-09-03T08:01:20;22.20;46.90
16517;DHT22;8371;52.272;9.746;2022-09-03T08:03:48;22.40;46.90
16517;DHT22;8371;52.272;9.746;2022-09-03T08:06:15;22.50;46.80
16517;DHT22;8371;52.272;9.746;2022-09-03T08:08:42;22.60;46.50
16517;DHT22;8371;52.272;9.746;2022-09-03T08:11:16;22.80;46.20
16517;DHT22;8371;52.272;9.746;2022-09-03T08:13:46;22.80;46.10
16517;DHT22;8371;52.272;9.746;2022-09-03T08:16:15;22.90;46.20
16517;DHT22;8371;52.272;9.746;2022-09-03T08:18:41;23.10;46.10
16517;DHT22;8371;52.272;9.746;2022-09-03T08:21:09;23.20;46.00
16517;DHT22;8371;52.272;9.746;2022-09-03T08:23:37;23.30;45.90
16517;DHT22;8371;52.272;9.746;2022-09-03T08:26:03;23.50;45.60
16517;DHT22;8371;52.272;9.746;2022-09-03T08:28:29;23.60;45.30
16517;DHT22;8371;52.272;9.746;2022-09-03T08:30:57;23.60;45.10
16517;DHT22;8371;52.272;9.746;2022-09-03T08:33:22;23.70;45.00
16517;DHT22;8371;52.272;9.746;2022-09-03T08:35:53;23.70;44.80
16517;DHT22;8371;52.272;9.746;2022-09-03T08:38:19;23.80;44.70
16517;DHT22;8371;52.272;9.746;2022-09-03T08:40:45;23.80;44.50
16517;DHT22;8371;52.272;9.746;2022-09-03T08:43:15;23.90;44.50
16517;DHT22;8371;52.272;9.746;2022-09-03T08:45:44;23.90;44.50
16517;DHT22;8371;52.272;9.746;2022-09-03T08:48:13;24.00;44.40
16517;DHT22;8371;52.272;9.746;2022-09-03T08:50:47;24.00;44.30
16517;DHT22;8371;52.272;9.746;2022-09-03T08:56:10;24.20;44.30
16517;DHT22;8371;52.272;9.746;2022-09-03T08:58:37;24.30;44.10
16517;DHT22;8371;52.272;9.746;2022-09-03T09:03:41;24.60;43.80
16517;DHT22;8371;52.272;9.746;2022-09-03T09:06:32;24.70;43.80
16517;DHT22;8371;52.272;9.746;2022-09-03T09:09:16;24.80;43.40
16517;DHT22;8371;52.272;9.746;2022-09-03T09:12:09;24.90;43.00
16517;DHT22;8371;52.272;9.746;2022-09-03T09:14:51;25.10;43.10
16517;DHT22;8371;52.272;9.746;2022-09-03T09:17:35;25.20;43.10
16517;DHT22;8371;52.272;9.746;2022-09-03T09:22:46;25.40;42.60
16517;DHT22;8371;52.272;9.746;2022-09-03T09:25:21;25.50;42.40
16517;DHT22;8371;52.272;9.746;2022-09-03T09:27:54;25.60;42.30
16517;DHT22;8371;52.272;9.746;2022-09-03T09:30:20;25.70;42.20
16517;DHT22;8371;52.272;9.746;2022-09-03T09:32:46;25.90;42.10
16517;DHT22;8371;52.272;9.746;2022-09-03T09:35:14;26.00;42.10
16517;DHT22;8371;52.272;9.746;2022-09-03T09:40:33;26.30;41.20
16517;DHT22;8371;52.272;9.746;2022-09-03T09:43:13;26.40;40.70
16517;DHT22;8371;52.272;9.746;2022-09-03T09:45:43;26.50;40.40
16517;DHT22;8371;52.272;9.746;2022-09-03T09:48:21;26.60;40.50
16517;DHT22;8371;52.272;9.746;2022-09-03T09:50:38;26.60;39.40
16517;DHT22;8371;52.272;9.746;2022-09-03T09:53:09;26.70;39.10
16517;DHT22;8371;52.272;9.746;2022-09-03T09:55:54;26.70;38.80
16517;DHT22;8371;52.272;9.746;2022-09-03T09:58:25;26.70;39.30
16517;DHT22;8371;52.272;9.746;2022-09-03T10:01:10;26.80;39.50
16517;DHT22;8371;52.272;9.746;2022-09-03T10:03:39;26.90;39.00
16517;DHT22;8371;52.272;9.746;2022-09-03T10:06:07;26.90;38.10
16517;DHT22;8371;52.272;9.746;2022-09-03T10:09:06;27.00;38.30
16517;DHT22;8371;52.272;9.746;2022-09-03T10:11:34;27.00;38.60
16517;DHT22;8371;52.272;9.746;2022-09-03T10:14:18;27.10;38.30
16517;DHT22;8371;52.272;9.746;2022-09-03T10:16:45;27.20;38.20
16517;DHT22;8371;52.272;9.746;2022-09-03T10:19:18;27.30;37.90
16517;DHT22;8371;52.272;9.746;2022-09-03T10:24:35;27.40;37.50
16517;DHT22;8371;52.272;9.746;2022-09-03T10:27:01;27.50;37.50
16517;DHT22;8371;52.272;9.746;2022-09-03T10:29:27;27.50;37.80
16517;DHT22;8371;52.272;9.746;2022-09-03T10:32:28;27.60;37.50
16517;DHT22;8371;52.272;9.746;2022-09-03T10:40:33;28.00;37.20
16517;DHT22;8371;52.272;9.746;2022-09-03T10:43:14;28.10;36.80
16517;DHT22;8371;52.272;9.746;2022-09-03T10:45:47;28.20;36.90
16517;DHT22;8371;52.272;9.746;2022-09-03T10:51:15;28.40;36.50
16517;DHT22;8371;52.272;9.746;2022-09-03T10:54:04;28.40;36.20
16517;DHT22;8371;52.272;9.746;2022-09-03T10:56:42;28.50;36.10
16517;DHT22;8371;52.272;9.746;2022-09-03T10:59:20;28.60;35.90
16517;DHT22;8371;52.272;9.746;2022-09-03T11:04:21;28.80;36.10
16517;DHT22;8371;52.272;9.746;2022-09-03T11:09:26;29.00;35.80
16517;DHT22;8371;52.272;9.746;2022-09-03T11:11:55;29.10;35.00
16517;DHT22;8371;52.272;9.746;2022-09-03T11:14:27;29.20;35.40
16517;DHT22;8371;52.272;9.746;2022-09-03T11:16:53;29.30;35.00
16517;DHT22;8371;52.272;9.746;2022-09-03T11:19:24;29.40;35.10
16517;DHT22;8371;52.272;9.746;2022-09-03T11:21:50;29.50;35.60
16517;DHT22;8371;52.272;9.746;2022-09-03T11:24:21;29.60;34.60
16517;DHT22;8371;52.272;9.746;2022-09-03T11:26:51;29.60;34.60
16517;DHT22;8371;52.272;9.746;2022-09-03T11:31:55;29.80;34.70
16517;DHT22;8371;52.272;9.746;2022-09-03T11:37:28;29.90;33.90
16517;DHT22;8371;52.272;9.746;2022-09-03T11:39:35;30.00;33.90
16517;DHT22;8371;52.272;9.746;2022-09-03T11:42:08;30.10;33.90
16517;DHT22;8371;52.272;9.746;2022-09-03T11:44:41;30.10;33.60
16517;DHT22;8371;52.272;9.746;2022-09-03T11:47:12;30.20;33.40
16517;DHT22;8371;52.272;9.746;2022-09-03T11:49:45;30.20;32.90
16517;DHT22;8371;52.272;9.746;2022-09-03T11:52:12;30.30;33.20
16517;DHT22;8371;52.272;9.746;2022-09-03T11:54:44;30.30;32.90
16517;DHT22;8371;52.272;9.746;2022-09-03T11:57:15;30.30;33.00
16517;DHT22;8371;52.272;9.746;2022-09-03T11:59:42;30.40;33.20
16517;DHT22;8371;52.272;9.746;2022-09-03T12:05:06;30.30;33.00
16517;DHT22;8371;52.272;9.746;2022-09-03T12:07:52;30.50;32.50
16517;DHT22;8371;52.272;9.746;2022-09-03T12:13:23;30.60;32.40
16517;DHT22;8371;52.272;9.746;2022-09-03T12:18:43;30.70;32.50
16517;DHT22;8371;52.272;9.746;2022-09-03T12:21:10;30.80;32.50
16517;DHT22;8371;52.272;9.746;2022-09-03T12:23:44;30.90;32.20
16517;DHT22;8371;52.272;9.746;2022-09-03T12:26:14;30.90;32.10
16517;DHT22;8371;52.272;9.746;2022-09-03T12:28:43;31.00;32.20
16517;DHT22;8371;52.272;9.746;2022-09-03T12:31:18;31.10;32.30
16517;DHT22;8371;52.272;9.746;2022-09-03T12:36:21;31.20;31.20
16517;DHT22;8371;52.272;9.746;2022-09-03T12:38:48;31.30;31.40
16517;DHT22;8371;52.272;9.746;2022-09-03T12:41:22;31.30;31.10
16517;DHT22;8371;52.272;9.746;2022-09-03T12:43:50;31.30;31.00
16517;DHT22;8371;52.272;9.746;2022-09-03T12:46:16;31.30;30.90
16517;DHT22;8371;52.272;9.746;2022-09-03T12:49:01;31.30;30.70
16517;DHT22;8371;52.272;9.746;2022-09-03T12:51:25;31.30;30.60
16517;DHT22;8371;52.272;9.746;2022-09-03T12:53:51;31.30;30.20
16517;DHT22;8371;52.272;9.746;2022-09-03T12:56:18;31.30;30.00
16517;DHT22;8371;52.272;9.746;2022-09-03T12:58:55;31.20;29.90
16517;DHT22;8371;52.272;9.746;2022-09-03T13:01:28;31.10;30.00
16517;DHT22;8371;52.272;9.746;2022-09-03T13:06:43;31.10;30.20
16517;DHT22;8371;52.272;9.746;2022-09-03T13:09:03;31.10;30.00
16517;DHT22;8371;52.272;9.746;2022-09-03T13:11:32;31.10;29.90
16517;DHT22;8371;52.272;9.746;2022-09-03T13:14:07;31.00;29.90
16517;DHT22;8371;52.272;9.746;2022-09-03T13:22:01;30.90;29.80
16517;DHT22;8371;52.272;9.746;2022-09-03T13:27:23;30.90;29.50
16517;DHT22;8371;52.272;9.746;2022-09-03T13:30:10;30.80;29.40
16517;DHT22;8371;52.272;9.746;2022-09-03T13:35:28;30.70;29.40
16517;DHT22;8371;52.272;9.746;2022-09-03T13:37:59;30.60;29.30
16517;DHT22;8371;52.272;9.746;2022-09-03T13:40:34;30.60;29.60
16517;DHT22;8371;52.272;9.746;2022-09-03T13:43:04;30.60;29.60
16517;DHT22;8371;52.272;9.746;2022-09-03T13:45:38;30.60;29.60
16517;DHT22;8371;52.272;9.746;2022-09-03T13:48:15;30.60;29.40
16517;DHT22;8371;52.272;9.746;2022-09-03T13:51:11;30.60;29.10
16517;DHT22;8371;52.272;9.746;2022-09-03T13:53:48;30.60;29.20
16517;DHT22;8371;52.272;9.746;2022-09-03T13:56:20;30.60;29.10
16517;DHT22;8371;52.272;9.746;2022-09-03T13:58:49;30.50;29.20
16517;DHT22;8371;52.272;9.746;2022-09-03T14:01:22;30.50;29.20
16517;DHT22;8371;52.272;9.746;2022-09-03T14:03:50;30.50;29.20
16517;DHT22;8371;52.272;9.746;2022-09-03T14:06:48;30.50;29.20
16517;DHT22;8371;52.272;9.746;2022-09-03T14:11:56;30.60;29.40
16517;DHT22;8371;52.272;9.746;2022-09-03T14:20:19;30.70;28.90
16517;DHT22;8371;52.272;9.746;2022-09-03T14:23:22;30.70;28.90
16517;DHT22;8371;52.272;9.746;2022-09-03T14:25:54;30.70;29.00
16517;DHT22;8371;52.272;9.746;2022-09-03T14:28:29;30.70;28.90
16517;DHT22;8371;52.272;9.746;2022-09-03T14:31:01;30.70;28.80
16517;DHT22;8371;52.272;9.746;2022-09-03T14:36:27;30.60;29.10
16517;DHT22;8371;52.272;9.746;2022-09-03T14:39:01;30.60;29.10
16517;DHT22;8371;52.272;9.746;2022-09-03T14:41:37;30.70;29.40
16517;DHT22;8371;52.272;9.746;2022-09-03T14:46:59;30.70;28.50
16517;DHT22;8371;52.272;9.746;2022-09-03T14:52:39;30.70;28.60
16517;DHT22;8371;52.272;9.746;2022-09-03T14:55:12;30.60;28.70
16517;DHT22;8371;52.272;9.746;2022-09-03T15:00:46;30.60;28.80
16517;DHT22;8371;52.272;9.746;2022-09-03T15:03:16;30.60;28.60
16517;DHT22;8371;52.272;9.746;2022-09-03T15:05:48;30.60;28.50
16517;DHT22;8371;52.272;9.746;2022-09-03T15:10:57;30.40;28.40
16517;DHT22;8371;52.272;9.746;2022-09-03T15:13:46;30.40;28.50
16517;DHT22;8371;52.272;9.746;2022-09-03T15:19:11;30.40;28.50
16517;DHT22;8371;52.272;9.746;2022-09-03T15:21:48;30.30;28.30
16517;DHT22;8371;52.272;9.746;2022-09-03T15:29:47;30.10;28.20
16517;DHT22;8371;52.272;9.746;2022-09-03T15:32:31;30.10;28.30
16517;DHT22;8371;52.272;9.746;2022-09-03T15:37:46;29.90;28.30
16517;DHT22;8371;52.272;9.746;2022-09-03T15:40:33;29.80;28.10
16517;DHT22;8371;52.272;9.746;2022-09-03T15:43:08;29.70;28.20
16517;DHT22;8371;52.272;9.746;2022-09-03T15:45:40;29.60;28.30
16517;DHT22;8371;52.272;9.746;2022-09-03T15:48:21;29.60;28.50
16517;DHT22;8371;52.272;9.746;2022-09-03T15:51:16;29.60;28.50
16517;DHT22;8371;52.272;9.746;2022-09-03T15:53:53;29.60;28.60
16517;DHT22;8371;52.272;9.746;2022-09-03T15:56:23;29.60;28.50
16517;DHT22;8371;52.272;9.746;2022-09-03T16:01:31;29.60;28.50
16517;DHT22;8371;52.272;9.746;2022-09-03T16:04:11;29.60;28.90
16517;DHT22;8371;52.272;9.746;2022-09-03T16:06:58;29.50;28.20
16517;DHT22;8371;52.272;9.746;2022-09-03T16:09:38;29.50;28.30
16517;DHT22;8371;52.272;9.746;2022-09-03T16:12:14;29.40;28.40
16517;DHT22;8371;52.272;9.746;2022-09-03T16:14:50;29.30;28.30
16517;DHT22;8371;52.272;9.746;2022-09-03T16:20:13;29.20;28.40
16517;DHT22;8371;52.272;9.746;2022-09-03T16:22:42;29.10;28.30
16517;DHT22;8371;52.272;9.746;2022-09-03T16:25:12;29.00;28.40
16517;DHT22;8371;52.272;9.746;2022-09-03T16:27:41;29.00;28.30
16517;DHT22;8371;52.272;9.746;2022-09-03T16:30:11;28.90;28.30
16517;DHT22;8371;52.272;9.746;2022-09-03T16:32:44;28.80;28.30
16517;DHT22;8371;52.272;9.746;2022-09-03T16:35:48;28.70;28.30
16517;DHT22;8371;52.272;9.746;2022-09-03T16:41:17;28.50;28.50
16517;DHT22;8371;52.272;9.746;2022-09-03T16:44:11;28.40;28.40
16517;DHT22;8371;52.272;9.746;2022-09-03T16:52:01;28.10;28.80
16517;DHT22;8371;52.272;9.746;2022-09-03T16:54:30;28.00;28.70
16517;DHT22;8371;52.272;9.746;2022-09-03T17:00:13;27.80;28.80
16517;DHT22;8371;52.272;9.746;2022-09-03T17:14:01;27.20;28.80
16517;DHT22;8371;52.272;9.746;2022-09-03T17:16:45;27.00;28.80
16517;DHT22;8371;52.272;9.746;2022-09-03T17:22:09;26.70;29.10
16517;DHT22;8371;52.272;9.746;2022-09-03T17:24:51;26.60;29.10
16517;DHT22;8371;52.272;9.746;2022-09-03T17:30:25;26.30;29.20
16517;DHT22;8371;52.272;9.746;2022-09-03T17:35:40;26.10;29.30
16517;DHT22;8371;52.272;9.746;2022-09-03T17:41:14;25.80;29.50
16517;DHT22;8371;52.272;9.746;2022-09-03T17:43:43;25.70;29.50
16517;DHT22;8371;52.272;9.746;2022-09-03T17:48:52;25.50;29.70
16517;DHT22;8371;52.272;9.746;2022-09-03T18:02:09;24.90;30.00
16517;DHT22;8371;52.272;9.746;2022-09-03T18:07:29;24.60;30.10
16517;DHT22;8371;52.272;9.746;2022-09-03T18:12:50;24.40;30.30
16517;DHT22;8371;52.272;9.746;2022-09-03T18:18:29;24.20;30.60
16517;DHT22;8371;52.272;9.746;2022-09-03T18:20:59;24.10;30.60
16517;DHT22;8371;52.272;9.746;2022-09-03T18:23:53;24.00;30.80
16517;DHT22;8371;52.272;9.746;2022-09-03T18:26:41;23.80;30.90
16517;DHT22;8371;52.272;9.746;2022-09-03T18:29:33;23.70;31.10
16517;DHT22;8371;52.272;9.746;2022-09-03T18:32:18;23.60;31.10
16517;DHT22;8371;52.272;9.746;2022-09-03T18:35:02;23.50;31.20
16517;DHT22;8371;52.272;9.746;2022-09-03T18:37:47;23.40;31.30
16517;DHT22;8371;52.272;9.746;2022-09-03T18:40:35;23.30;31.60
16517;DHT22;8371;52.272;9.746;2022-09-03T18:43:29;23.20;31.60
16517;DHT22;8371;52.272;9.746;2022-09-03T18:46:20;23.10;31.70
16517;DHT22;8371;52.272;9.746;2022-09-03T18:49:26;23.00;31.80
16517;DHT22;8371;52.272;9.746;2022-09-03T18:52:25;22.90;31.80
16517;DHT22;8371;52.272;9.746;2022-09-03T18:58:14;22.60;32.10
16517;DHT22;8371;52.272;9.746;2022-09-03T19:04:05;22.40;32.30
16517;DHT22;8371;52.272;9.746;2022-09-03T19:07:39;22.30;32.50
16517;DHT22;8371;52.272;9.746;2022-09-03T19:10:00;22.10;32.40
16517;DHT22;8371;52.272;9.746;2022-09-03T19:15:58;21.90;32.70
16517;DHT22;8371;52.272;9.746;2022-09-03T19:19:03;21.80;33.00
16517;DHT22;8371;52.272;9.746;2022-09-03T19:21:53;21.70;33.10
16517;DHT22;8371;52.272;9.746;2022-09-03T19:24:37;21.60;33.20
16517;DHT22;8371;52.272;9.746;2022-09-03T19:30:19;21.40;33.50